Pagina principale
METAR-TAF:

METAR-TAF

Aeroporti :

Aeroporto di Limoges Bellegarde

Limoges, Francia

latitudine: 45-52N, longitudine: 001-11E, altezza: 396 m

Osservazione

Il bollettino è stato emesso 37 minuti fa, alle 08:00 UTC
Vento 7 kt da nord
Temperature 16°C
Umidità 63%
Pressione 1023 hPa
Visibilità 10 km o più
nessuna nube inferiore a 1500 m e nessun cumulonembo

METAR: LFBL 200800Z AUTO 01007KT CAVOK 16/09 Q1023 NOSIG

Ora: 10:37 (08:37 UTC)

Previsione

Il bollettino è stato emesso 3 ore e 37 minuti fa, alle 05:00 UTC
Previsione valida dal 20 alle 06 UTC al 21 alle 06 UTC
Vento 5 kt da nord
Visibilità 10 km o più
nessuna nube inferiore a 1500 m e nessun cumulonembo
Evoluzione graduale
dal 21 alle 02 UTC al 21 alle 04 UTC
Vento 2 kt da direzioni variabili

TAF: LFBL 200500Z 2006/2106 36005KT CAVOK BECMG 2102/2104 VRB02KT

Osservazioni e previsioni meteorologiche di più di 4000 aeroporti (messaggi METAR e TAF).

Le stazioni disponibili sono rappresentate dai dischi gialli e rossi sulla carta.

Puntare il mouse per vedere il nome della stazione.

Clicca sopra per visualizzare le osservazioni e previsioni meteorologiche.

Per cambiare la mappa : fare clic sui pulsanti verdi con una croce nera per ingrandire, il pulsante verde con un trattino per diminuire, o sulla freccia verde per le mappe adiacenti.


METAR-TAF: